NOZ31F ENGM-EGKK
Flight info
| Callsign | NOZ31F |
|---|---|
| Flight time | 1h 54m |
| Altitude | 36000 |
| Route | VIPPA DCT ELKOP DCT AMSEV DCT UPGAS DCT TIPAN DCT WECOW DCT BINBO DCT AKOKO N866 BUKUT P7 BARMI |
| Aircraft | B738/M-SDE3GHIJ1LRWXY/SB1 |
Departure
| Time | 2026-05-06 17:25 |
|---|---|
| Airport | Oslo-Gardermoen International Airport (ENGM) |
Arrival
| Time | 2026-05-06 19:20 |
|---|---|
| Airport | London Gatwick Airport (EGKK) |
| Time | Latitude | Longitude | Altitude | Speed | Heading |
|---|---|---|---|---|---|
| 2026-05-06 16:21 | 60.19407 | 11.10551 | 684 ft | 0 kts | 196° |
| 2026-05-06 17:14 | 60.19415 | 11.10556 | 684 ft | 4 kts | 196° |
| 2026-05-06 17:14 | 60.19441 | 11.10571 | 684 ft | 4 kts | 196° |
| 2026-05-06 17:14 | 60.19467 | 11.10586 | 679 ft | 4 kts | 196° |
| 2026-05-06 17:15 | 60.19488 | 11.10597 | 681 ft | 4 kts | 175° |
| 2026-05-06 17:15 | 60.19509 | 11.10576 | 680 ft | 4 kts | 124° |
| 2026-05-06 17:15 | 60.19519 | 11.10535 | 682 ft | 3 kts | 106° |
| 2026-05-06 17:15 | 60.19515 | 11.10565 | 682 ft | 4 kts | 106° |
| 2026-05-06 17:16 | 60.19507 | 11.10617 | 681 ft | 4 kts | 106° |
| 2026-05-06 17:16 | 60.19500 | 11.10669 | 682 ft | 4 kts | 106° |
| 2026-05-06 17:16 | 60.19492 | 11.10721 | 680 ft | 4 kts | 106° |
| 2026-05-06 17:16 | 60.19490 | 11.10739 | 682 ft | 1 kts | 106° |
| 2026-05-06 17:19 | 60.19487 | 11.10755 | 682 ft | 4 kts | 106° |
| 2026-05-06 17:20 | 60.19471 | 11.10875 | 682 ft | 12 kts | 105° |
| 2026-05-06 17:20 | 60.19443 | 11.11066 | 682 ft | 15 kts | 106° |
| 2026-05-06 17:20 | 60.19422 | 11.11217 | 682 ft | 8 kts | 103° |
| 2026-05-06 17:20 | 60.19453 | 11.11300 | 678 ft | 9 kts | 17° |
| 2026-05-06 17:21 | 60.19526 | 11.11342 | 681 ft | 13 kts | 16° |
| 2026-05-06 17:21 | 60.19625 | 11.11399 | 682 ft | 16 kts | 16° |
| 2026-05-06 17:21 | 60.19740 | 11.11465 | 683 ft | 17 kts | 16° |
| 2026-05-06 17:21 | 60.19851 | 11.11529 | 682 ft | 16 kts | 15° |
| 2026-05-06 17:22 | 60.19959 | 11.11591 | 682 ft | 16 kts | 16° |
| 2026-05-06 17:22 | 60.20055 | 11.11647 | 680 ft | 10 kts | 16° |
| 2026-05-06 17:22 | 60.20088 | 11.11745 | 685 ft | 10 kts | 94° |
| 2026-05-06 17:22 | 60.20070 | 11.11883 | 678 ft | 10 kts | 107° |
| 2026-05-06 17:23 | 60.20050 | 11.12017 | 685 ft | 10 kts | 107° |
| 2026-05-06 17:23 | 60.20031 | 11.12148 | 688 ft | 9 kts | 105° |
| 2026-05-06 17:23 | 60.19995 | 11.12176 | 680 ft | 3 kts | 196° |
| 2026-05-06 17:23 | 60.19994 | 11.12176 | 688 ft | 1 kts | 196° |
| 2026-05-06 17:24 | 60.19981 | 11.12168 | 682 ft | 4 kts | 196° |
| 2026-05-06 17:24 | 60.19880 | 11.12109 | 686 ft | 40 kts | 196° |
| 2026-05-06 17:24 | 60.19377 | 11.11822 | 682 ft | 108 kts | 196° |
| 2026-05-06 17:24 | 60.18473 | 11.11290 | 704 ft | 159 kts | 197° |
| 2026-05-06 17:25 | 60.17403 | 11.10647 | 1275 ft | 164 kts | 199° |
| 2026-05-06 17:25 | 60.16284 | 11.09980 | 1956 ft | 172 kts | 199° |
| 2026-05-06 17:25 | 60.15053 | 11.09255 | 2383 ft | 198 kts | 198° |
| 2026-05-06 17:25 | 60.13675 | 11.08474 | 2715 ft | 215 kts | 197° |
| 2026-05-06 17:26 | 60.12164 | 11.07961 | 3198 ft | 225 kts | 188° |
| 2026-05-06 17:26 | 60.10592 | 11.07643 | 3815 ft | 229 kts | 188° |
| 2026-05-06 17:26 | 60.09039 | 11.06849 | 4383 ft | 238 kts | 212° |
| 2026-05-06 17:26 | 60.07637 | 11.04840 | 4825 ft | 254 kts | 219° |
| 2026-05-06 17:27 | 60.06226 | 11.02660 | 5604 ft | 259 kts | 219° |
| 2026-05-06 17:27 | 60.04788 | 11.00460 | 6436 ft | 261 kts | 218° |
| 2026-05-06 17:27 | 60.03331 | 10.98257 | 7222 ft | 264 kts | 218° |
| 2026-05-06 17:27 | 60.01858 | 10.96053 | 8034 ft | 266 kts | 218° |
| 2026-05-06 17:28 | 60.00365 | 10.93837 | 8794 ft | 269 kts | 218° |
| 2026-05-06 17:28 | 59.98851 | 10.91606 | 9647 ft | 272 kts | 217° |
| 2026-05-06 17:28 | 59.97318 | 10.89360 | 10399 ft | 279 kts | 218° |
| 2026-05-06 17:28 | 59.95681 | 10.86967 | 10631 ft | 305 kts | 218° |
| 2026-05-06 17:29 | 59.93903 | 10.84371 | 10831 ft | 328 kts | 218° |
| 2026-05-06 17:29 | 59.92007 | 10.81618 | 11235 ft | 343 kts | 218° |
| 2026-05-06 17:29 | 59.90065 | 10.78814 | 11971 ft | 347 kts | 218° |
| 2026-05-06 17:29 | 59.88102 | 10.75990 | 12860 ft | 347 kts | 218° |
| 2026-05-06 17:30 | 59.86136 | 10.73168 | 13740 ft | 348 kts | 219° |
| 2026-05-06 17:30 | 59.84167 | 10.70345 | 14452 ft | 350 kts | 219° |
| 2026-05-06 17:30 | 59.82179 | 10.67499 | 15157 ft | 353 kts | 219° |
| 2026-05-06 17:30 | 59.80178 | 10.64639 | 15888 ft | 356 kts | 219° |
| 2026-05-06 17:31 | 59.78193 | 10.61803 | 16662 ft | 357 kts | 219° |
| 2026-05-06 17:31 | 59.76174 | 10.58923 | 17382 ft | 359 kts | 219° |
| 2026-05-06 17:31 | 59.74134 | 10.56020 | 18024 ft | 363 kts | 219° |
| 2026-05-06 17:31 | 59.72059 | 10.53068 | 18438 ft | 371 kts | 219° |
| 2026-05-06 17:32 | 59.69967 | 10.50100 | 19172 ft | 368 kts | 219° |
| 2026-05-06 17:32 | 59.67889 | 10.47161 | 19851 ft | 368 kts | 219° |
| 2026-05-06 17:32 | 59.65801 | 10.44207 | 20359 ft | 372 kts | 219° |
| 2026-05-06 17:32 | 59.63682 | 10.41209 | 20900 ft | 375 kts | 220° |
| 2026-05-06 17:33 | 59.61552 | 10.38203 | 21454 ft | 377 kts | 220° |
| 2026-05-06 17:33 | 59.59418 | 10.35198 | 21986 ft | 379 kts | 220° |
| 2026-05-06 17:33 | 59.57264 | 10.32170 | 22509 ft | 382 kts | 220° |
| 2026-05-06 17:33 | 59.55093 | 10.29126 | 23034 ft | 384 kts | 220° |
| 2026-05-06 17:34 | 59.52911 | 10.26072 | 23535 ft | 386 kts | 220° |
| 2026-05-06 17:34 | 59.50716 | 10.23006 | 23966 ft | 387 kts | 220° |
| 2026-05-06 17:34 | 59.48515 | 10.19935 | 24369 ft | 388 kts | 220° |
| 2026-05-06 17:34 | 59.46299 | 10.16841 | 24673 ft | 394 kts | 219° |
| 2026-05-06 17:35 | 59.44056 | 10.13712 | 25040 ft | 397 kts | 219° |
| 2026-05-06 17:35 | 59.41801 | 10.10576 | 25538 ft | 397 kts | 219° |
| 2026-05-06 17:35 | 59.39555 | 10.07460 | 25995 ft | 396 kts | 219° |
| 2026-05-06 17:36 | 59.35014 | 10.01179 | 26873 ft | 402 kts | 219° |
| 2026-05-06 17:36 | 59.32742 | 9.98025 | 27311 ft | 400 kts | 219° |
| 2026-05-06 17:36 | 59.30460 | 9.94880 | 27622 ft | 403 kts | 219° |
| 2026-05-06 17:36 | 59.28160 | 9.91723 | 27950 ft | 404 kts | 219° |
| 2026-05-06 17:37 | 59.25856 | 9.88567 | 28299 ft | 405 kts | 219° |
| 2026-05-06 17:37 | 59.23550 | 9.85411 | 28765 ft | 403 kts | 219° |
| 2026-05-06 17:37 | 59.21259 | 9.82282 | 29189 ft | 402 kts | 219° |
| 2026-05-06 17:37 | 59.18967 | 9.79153 | 29607 ft | 402 kts | 219° |
| 2026-05-06 17:38 | 59.16681 | 9.76035 | 30127 ft | 399 kts | 219° |
| 2026-05-06 17:38 | 59.14419 | 9.72951 | 30592 ft | 396 kts | 219° |
| 2026-05-06 17:38 | 59.12160 | 9.69878 | 30886 ft | 397 kts | 219° |
| 2026-05-06 17:38 | 59.09896 | 9.66808 | 31094 ft | 398 kts | 219° |
| 2026-05-06 17:39 | 59.07619 | 9.63720 | 31353 ft | 399 kts | 219° |
| 2026-05-06 17:39 | 59.05346 | 9.60646 | 31720 ft | 398 kts | 218° |
| 2026-05-06 17:39 | 59.03076 | 9.57583 | 32083 ft | 398 kts | 219° |
| 2026-05-06 17:39 | 59.00799 | 9.54514 | 32311 ft | 399 kts | 218° |
| 2026-05-06 17:40 | 58.98507 | 9.51432 | 32581 ft | 401 kts | 218° |
| 2026-05-06 17:40 | 58.96224 | 9.48364 | 32913 ft | 399 kts | 218° |
| 2026-05-06 17:40 | 58.93948 | 9.45308 | 33252 ft | 398 kts | 218° |
| 2026-05-06 17:40 | 58.91672 | 9.42255 | 33508 ft | 398 kts | 218° |
| 2026-05-06 17:41 | 58.89392 | 9.39201 | 33750 ft | 399 kts | 218° |
| 2026-05-06 17:41 | 58.87139 | 9.36190 | 34045 ft | 399 kts | 218° |
| 2026-05-06 17:41 | 58.84856 | 9.33144 | 34296 ft | 399 kts | 218° |
| 2026-05-06 17:41 | 58.82565 | 9.30095 | 34425 ft | 401 kts | 218° |
| 2026-05-06 17:42 | 58.80262 | 9.27033 | 34576 ft | 403 kts | 218° |
| 2026-05-06 17:42 | 58.77947 | 9.23962 | 34771 ft | 404 kts | 218° |
| 2026-05-06 17:42 | 58.75594 | 9.20846 | 34967 ft | 405 kts | 218° |
| 2026-05-06 17:42 | 58.73301 | 9.17815 | 35120 ft | 407 kts | 218° |
| 2026-05-06 17:43 | 58.70961 | 9.14727 | 35290 ft | 408 kts | 218° |
| 2026-05-06 17:43 | 58.68614 | 9.11634 | 35444 ft | 410 kts | 218° |
| 2026-05-06 17:43 | 58.66265 | 9.08544 | 35625 ft | 410 kts | 218° |
| 2026-05-06 17:43 | 58.63904 | 9.05441 | 35798 ft | 411 kts | 218° |
| 2026-05-06 17:44 | 58.61538 | 9.02338 | 35941 ft | 413 kts | 217° |
| 2026-05-06 17:44 | 58.59150 | 8.99211 | 35940 ft | 416 kts | 217° |
| 2026-05-06 17:44 | 58.54380 | 8.92986 | 35946 ft | 413 kts | 217° |
| 2026-05-06 17:45 | 58.49642 | 8.86823 | 35953 ft | 410 kts | 217° |
| 2026-05-06 17:45 | 58.44932 | 8.80713 | 35958 ft | 408 kts | 217° |
| 2026-05-06 17:46 | 58.40242 | 8.74649 | 35959 ft | 407 kts | 217° |
| 2026-05-06 17:46 | 58.35549 | 8.68597 | 35965 ft | 408 kts | 217° |
| 2026-05-06 17:47 | 58.30841 | 8.62547 | 35962 ft | 409 kts | 217° |
| 2026-05-06 17:47 | 58.26102 | 8.56480 | 35967 ft | 412 kts | 217° |
| 2026-05-06 17:48 | 58.21337 | 8.50397 | 35965 ft | 414 kts | 217° |
| 2026-05-06 17:48 | 58.16544 | 8.44301 | 35959 ft | 415 kts | 217° |
| 2026-05-06 17:49 | 58.11736 | 8.38206 | 35966 ft | 417 kts | 217° |
| 2026-05-06 17:49 | 58.06904 | 8.32098 | 35966 ft | 419 kts | 217° |
| 2026-05-06 17:50 | 58.02055 | 8.25991 | 35967 ft | 419 kts | 217° |
| 2026-05-06 17:50 | 57.97196 | 8.19895 | 35963 ft | 419 kts | 217° |
| 2026-05-06 17:51 | 57.92336 | 8.13817 | 35947 ft | 419 kts | 217° |
| 2026-05-06 17:51 | 57.87487 | 8.07772 | 35967 ft | 418 kts | 217° |
| 2026-05-06 17:52 | 57.83463 | 8.02771 | 35966 ft | 417 kts | 217° |
| 2026-05-06 17:52 | 57.77842 | 7.95803 | 35968 ft | 416 kts | 217° |
| 2026-05-06 17:53 | 57.73016 | 7.89843 | 35967 ft | 415 kts | 216° |
| 2026-05-06 17:53 | 57.68192 | 7.83906 | 35938 ft | 415 kts | 217° |
| 2026-05-06 17:54 | 57.64155 | 7.78952 | 35963 ft | 414 kts | 216° |
| 2026-05-06 17:54 | 57.59333 | 7.73051 | 35974 ft | 415 kts | 216° |
| 2026-05-06 17:55 | 57.54499 | 7.67155 | 35984 ft | 415 kts | 216° |
| 2026-05-06 17:55 | 57.49660 | 7.61273 | 35985 ft | 416 kts | 216° |
| 2026-05-06 17:56 | 57.44800 | 7.55384 | 35992 ft | 417 kts | 216° |
| 2026-05-06 17:56 | 57.39929 | 7.49499 | 35983 ft | 418 kts | 216° |
| 2026-05-06 17:57 | 57.35052 | 7.43625 | 35983 ft | 419 kts | 216° |
| 2026-05-06 17:57 | 57.30160 | 7.37755 | 35999 ft | 419 kts | 216° |
| 2026-05-06 17:58 | 57.25294 | 7.31933 | 36002 ft | 420 kts | 216° |
| 2026-05-06 17:58 | 57.20384 | 7.26079 | 36002 ft | 420 kts | 216° |
| 2026-05-06 17:59 | 57.15465 | 7.20236 | 35987 ft | 420 kts | 216° |
| 2026-05-06 17:59 | 57.10558 | 7.14423 | 35996 ft | 419 kts | 216° |
| 2026-05-06 18:00 | 57.05654 | 7.08630 | 36030 ft | 419 kts | 216° |
| 2026-05-06 18:00 | 57.00748 | 7.02854 | 36013 ft | 419 kts | 216° |
| 2026-05-06 18:01 | 56.95835 | 6.97086 | 36009 ft | 419 kts | 216° |
| 2026-05-06 18:01 | 56.90923 | 6.91338 | 35992 ft | 419 kts | 215° |
| 2026-05-06 18:02 | 56.85999 | 6.85597 | 36011 ft | 419 kts | 215° |
| 2026-05-06 18:02 | 56.81080 | 6.79879 | 36014 ft | 419 kts | 215° |
| 2026-05-06 18:03 | 56.76123 | 6.74136 | 36020 ft | 420 kts | 215° |
| 2026-05-06 18:03 | 56.71216 | 6.68466 | 36020 ft | 420 kts | 215° |
| 2026-05-06 18:04 | 56.66276 | 6.62777 | 35992 ft | 420 kts | 215° |
| 2026-05-06 18:04 | 56.61338 | 6.57109 | 36010 ft | 420 kts | 215° |
| 2026-05-06 18:05 | 56.56391 | 6.51450 | 36021 ft | 421 kts | 215° |
| 2026-05-06 18:05 | 56.51433 | 6.45796 | 36022 ft | 421 kts | 215° |
| 2026-05-06 18:06 | 56.46470 | 6.40153 | 36023 ft | 421 kts | 215° |
| 2026-05-06 18:06 | 56.41504 | 6.34523 | 36023 ft | 421 kts | 214° |
| 2026-05-06 18:07 | 56.36542 | 6.28916 | 36015 ft | 421 kts | 214° |
| 2026-05-06 18:07 | 56.31578 | 6.23324 | 36022 ft | 420 kts | 214° |
| 2026-05-06 18:08 | 56.26613 | 6.17749 | 36025 ft | 421 kts | 214° |
| 2026-05-06 18:08 | 56.21634 | 6.12173 | 36029 ft | 422 kts | 214° |
| 2026-05-06 18:09 | 56.16645 | 6.06610 | 36026 ft | 422 kts | 214° |
| 2026-05-06 18:09 | 56.11650 | 6.01050 | 36014 ft | 423 kts | 214° |
| 2026-05-06 18:10 | 56.06649 | 5.95501 | 36030 ft | 423 kts | 214° |
| 2026-05-06 18:10 | 56.01642 | 5.89963 | 36026 ft | 423 kts | 214° |
| 2026-05-06 18:11 | 55.96670 | 5.84483 | 36025 ft | 423 kts | 214° |
| 2026-05-06 18:11 | 55.91662 | 5.78979 | 36028 ft | 423 kts | 214° |
| 2026-05-06 18:12 | 55.86647 | 5.73486 | 36034 ft | 423 kts | 214° |
| 2026-05-06 18:12 | 55.81629 | 5.68004 | 36029 ft | 423 kts | 214° |
| 2026-05-06 18:13 | 55.76610 | 5.62540 | 36021 ft | 423 kts | 214° |
| 2026-05-06 18:13 | 55.71583 | 5.57083 | 36026 ft | 424 kts | 214° |
| 2026-05-06 18:14 | 55.66547 | 5.51632 | 36030 ft | 424 kts | 214° |
| 2026-05-06 18:14 | 55.61508 | 5.46193 | 36029 ft | 424 kts | 214° |
| 2026-05-06 18:15 | 55.56462 | 5.40765 | 36033 ft | 425 kts | 214° |
| 2026-05-06 18:15 | 55.51413 | 5.35348 | 36030 ft | 425 kts | 214° |
| 2026-05-06 18:16 | 55.46353 | 5.29940 | 36026 ft | 425 kts | 213° |
| 2026-05-06 18:16 | 55.41284 | 5.24536 | 36023 ft | 426 kts | 213° |
| 2026-05-06 18:17 | 55.36209 | 5.19144 | 36015 ft | 426 kts | 213° |
| 2026-05-06 18:17 | 55.31142 | 5.13779 | 36021 ft | 425 kts | 213° |
| 2026-05-06 18:18 | 55.26075 | 5.08425 | 36026 ft | 425 kts | 213° |
| 2026-05-06 18:18 | 55.21011 | 5.03091 | 36023 ft | 425 kts | 213° |
| 2026-05-06 18:19 | 55.15941 | 4.97769 | 36001 ft | 425 kts | 213° |
| 2026-05-06 18:19 | 55.10875 | 4.92466 | 36017 ft | 425 kts | 213° |
| 2026-05-06 18:20 | 55.05801 | 4.87170 | 36022 ft | 425 kts | 213° |
| 2026-05-06 18:20 | 55.00717 | 4.81876 | 36022 ft | 426 kts | 213° |
| 2026-05-06 18:21 | 54.95621 | 4.76592 | 36022 ft | 426 kts | 213° |
| 2026-05-06 18:21 | 54.90527 | 4.71322 | 35997 ft | 426 kts | 213° |
| 2026-05-06 18:22 | 54.85424 | 4.66057 | 36013 ft | 427 kts | 213° |
| 2026-05-06 18:22 | 54.80349 | 4.60841 | 36024 ft | 427 kts | 213° |
| 2026-05-06 18:23 | 54.75235 | 4.55596 | 36016 ft | 428 kts | 213° |
| 2026-05-06 18:23 | 54.70108 | 4.50354 | 36017 ft | 428 kts | 213° |
| 2026-05-06 18:24 | 54.64973 | 4.45117 | 36007 ft | 429 kts | 212° |
| 2026-05-06 18:24 | 54.59835 | 4.39895 | 36020 ft | 429 kts | 212° |
| 2026-05-06 18:25 | 54.54590 | 4.34948 | 36011 ft | 429 kts | 210° |
| 2026-05-06 18:25 | 54.49276 | 4.30217 | 36010 ft | 430 kts | 210° |
| 2026-05-06 18:26 | 54.43968 | 4.25469 | 36028 ft | 431 kts | 210° |
| 2026-05-06 18:26 | 54.38656 | 4.20683 | 36005 ft | 431 kts | 210° |
| 2026-05-06 18:27 | 54.33352 | 4.15901 | 36016 ft | 431 kts | 210° |
| 2026-05-06 18:27 | 54.28045 | 4.11131 | 36019 ft | 431 kts | 210° |
| 2026-05-06 18:28 | 54.22733 | 4.06372 | 36009 ft | 431 kts | 210° |
| 2026-05-06 18:28 | 54.17418 | 4.01625 | 35998 ft | 431 kts | 210° |
| 2026-05-06 18:29 | 54.12101 | 3.96888 | 36012 ft | 431 kts | 210° |
| 2026-05-06 18:29 | 54.06758 | 3.92142 | 36018 ft | 432 kts | 210° |
| 2026-05-06 18:30 | 54.01490 | 3.87475 | 36014 ft | 432 kts | 210° |
| 2026-05-06 18:30 | 53.96155 | 3.82766 | 36013 ft | 432 kts | 209° |
| 2026-05-06 18:31 | 53.90814 | 3.78069 | 36004 ft | 432 kts | 209° |
| 2026-05-06 18:31 | 53.85497 | 3.73405 | 36015 ft | 433 kts | 209° |
| 2026-05-06 18:32 | 53.80146 | 3.68720 | 36015 ft | 433 kts | 209° |
| 2026-05-06 18:32 | 53.74787 | 3.64044 | 36023 ft | 434 kts | 209° |
| 2026-05-06 18:33 | 53.69418 | 3.59371 | 36013 ft | 434 kts | 209° |
| 2026-05-06 18:33 | 53.64048 | 3.54711 | 36005 ft | 434 kts | 209° |
| 2026-05-06 18:34 | 53.58674 | 3.50062 | 36014 ft | 435 kts | 209° |
| 2026-05-06 18:34 | 53.53292 | 3.45419 | 36011 ft | 435 kts | 209° |
| 2026-05-06 18:35 | 53.47909 | 3.40787 | 36011 ft | 435 kts | 209° |
| 2026-05-06 18:35 | 53.42520 | 3.36163 | 36010 ft | 435 kts | 209° |
| 2026-05-06 18:36 | 53.37124 | 3.31550 | 36000 ft | 435 kts | 209° |
| 2026-05-06 18:36 | 53.31727 | 3.26949 | 35991 ft | 435 kts | 209° |
| 2026-05-06 18:37 | 53.27240 | 3.23131 | 35990 ft | 435 kts | 209° |
| 2026-05-06 18:37 | 53.20926 | 3.17778 | 35968 ft | 436 kts | 209° |
| 2026-05-06 18:38 | 53.15523 | 3.13207 | 35981 ft | 435 kts | 208° |
| 2026-05-06 18:38 | 53.10121 | 3.08654 | 35983 ft | 435 kts | 208° |
| 2026-05-06 18:39 | 53.04716 | 3.04114 | 36004 ft | 435 kts | 208° |
| 2026-05-06 18:40 | 52.96638 | 2.97341 | 35981 ft | 436 kts | 208° |
| 2026-05-06 18:40 | 52.91178 | 2.92784 | 35087 ft | 440 kts | 208° |
| 2026-05-06 18:40 | 52.88445 | 2.90508 | 34430 ft | 440 kts | 208° |
| 2026-05-06 18:41 | 52.86593 | 2.88968 | 33993 ft | 440 kts | 208° |
| 2026-05-06 18:41 | 52.83857 | 2.86695 | 33212 ft | 441 kts | 208° |
| 2026-05-06 18:41 | 52.81116 | 2.84420 | 32481 ft | 440 kts | 208° |
| 2026-05-06 18:41 | 52.78383 | 2.82154 | 31785 ft | 440 kts | 208° |
| 2026-05-06 18:42 | 52.75669 | 2.79909 | 31327 ft | 433 kts | 208° |
| 2026-05-06 18:42 | 52.72982 | 2.77692 | 30796 ft | 429 kts | 208° |
| 2026-05-06 18:42 | 52.70325 | 2.75502 | 30313 ft | 425 kts | 208° |
| 2026-05-06 18:42 | 52.67730 | 2.73365 | 29801 ft | 421 kts | 208° |
| 2026-05-06 18:43 | 52.65092 | 2.71195 | 29275 ft | 415 kts | 208° |
| 2026-05-06 18:43 | 52.62561 | 2.69115 | 28785 ft | 409 kts | 208° |
| 2026-05-06 18:43 | 52.60034 | 2.67040 | 28305 ft | 404 kts | 208° |
| 2026-05-06 18:43 | 52.57530 | 2.64986 | 27817 ft | 400 kts | 208° |
| 2026-05-06 18:44 | 52.55057 | 2.62959 | 27339 ft | 395 kts | 208° |
| 2026-05-06 18:44 | 52.52610 | 2.60956 | 26860 ft | 391 kts | 208° |
| 2026-05-06 18:44 | 52.50181 | 2.58975 | 26382 ft | 388 kts | 208° |
| 2026-05-06 18:44 | 52.47774 | 2.57010 | 25930 ft | 384 kts | 208° |
| 2026-05-06 18:45 | 52.45420 | 2.55094 | 25854 ft | 371 kts | 208° |
| 2026-05-06 18:45 | 52.43105 | 2.53213 | 25753 ft | 377 kts | 208° |
| 2026-05-06 18:45 | 52.40712 | 2.51265 | 25652 ft | 392 kts | 208° |
| 2026-05-06 18:45 | 52.38238 | 2.49254 | 25529 ft | 400 kts | 208° |
| 2026-05-06 18:46 | 52.35750 | 2.47238 | 25400 ft | 397 kts | 208° |
| 2026-05-06 18:46 | 52.33280 | 2.45241 | 25263 ft | 396 kts | 208° |
| 2026-05-06 18:46 | 52.30813 | 2.43248 | 25147 ft | 395 kts | 208° |
| 2026-05-06 18:46 | 52.28353 | 2.41262 | 25028 ft | 394 kts | 208° |
| 2026-05-06 18:47 | 52.25902 | 2.39284 | 24897 ft | 393 kts | 208° |
| 2026-05-06 18:47 | 52.23451 | 2.37309 | 24781 ft | 393 kts | 208° |
| 2026-05-06 18:47 | 52.21003 | 2.35339 | 24674 ft | 393 kts | 208° |
| 2026-05-06 18:47 | 52.18553 | 2.33371 | 24556 ft | 392 kts | 208° |
| 2026-05-06 18:48 | 52.16105 | 2.31405 | 24435 ft | 393 kts | 208° |
| 2026-05-06 18:48 | 52.13653 | 2.29439 | 24320 ft | 392 kts | 208° |
| 2026-05-06 18:48 | 52.11204 | 2.27479 | 24201 ft | 392 kts | 208° |
| 2026-05-06 18:48 | 52.08752 | 2.25516 | 24083 ft | 392 kts | 208° |
| 2026-05-06 18:49 | 52.06306 | 2.23563 | 23966 ft | 392 kts | 208° |
| 2026-05-06 18:49 | 52.03861 | 2.21615 | 23850 ft | 391 kts | 208° |
| 2026-05-06 18:49 | 52.01414 | 2.19666 | 23719 ft | 391 kts | 208° |
| 2026-05-06 18:49 | 51.98979 | 2.17733 | 23606 ft | 389 kts | 208° |
| 2026-05-06 18:50 | 51.96544 | 2.15800 | 23479 ft | 389 kts | 208° |
| 2026-05-06 18:50 | 51.94121 | 2.13861 | 23357 ft | 388 kts | 208° |
| 2026-05-06 18:50 | 51.91699 | 2.11942 | 23226 ft | 387 kts | 208° |
| 2026-05-06 18:50 | 51.89285 | 2.10034 | 23099 ft | 386 kts | 208° |
| 2026-05-06 18:51 | 51.86869 | 2.08127 | 22987 ft | 386 kts | 208° |
| 2026-05-06 18:51 | 51.84459 | 2.06224 | 22871 ft | 385 kts | 208° |
| 2026-05-06 18:51 | 51.82053 | 2.04323 | 22752 ft | 384 kts | 208° |
| 2026-05-06 18:51 | 51.79656 | 2.02426 | 22643 ft | 384 kts | 208° |
| 2026-05-06 18:52 | 51.77287 | 2.00565 | 22512 ft | 383 kts | 208° |
| 2026-05-06 18:52 | 51.74869 | 1.98674 | 22389 ft | 381 kts | 208° |
| 2026-05-06 18:52 | 51.72514 | 1.96820 | 22293 ft | 382 kts | 207° |
| 2026-05-06 18:52 | 51.70124 | 1.94942 | 22182 ft | 383 kts | 208° |
| 2026-05-06 18:53 | 51.67731 | 1.93066 | 22069 ft | 383 kts | 208° |
| 2026-05-06 18:53 | 51.65389 | 1.91024 | 21900 ft | 383 kts | 217° |
| 2026-05-06 18:53 | 51.63503 | 1.87998 | 21388 ft | 382 kts | 231° |
| 2026-05-06 18:53 | 51.61799 | 1.84739 | 20854 ft | 380 kts | 231° |
| 2026-05-06 18:54 | 51.60075 | 1.81528 | 20341 ft | 378 kts | 230° |
| 2026-05-06 18:54 | 51.58352 | 1.78365 | 19833 ft | 375 kts | 230° |
| 2026-05-06 18:54 | 51.56635 | 1.75234 | 19335 ft | 372 kts | 230° |
| 2026-05-06 18:54 | 51.54930 | 1.72135 | 18842 ft | 369 kts | 230° |
| 2026-05-06 18:55 | 51.53235 | 1.69056 | 18356 ft | 367 kts | 230° |
| 2026-05-06 18:55 | 51.51551 | 1.66004 | 17810 ft | 364 kts | 230° |
| 2026-05-06 18:55 | 51.49873 | 1.62966 | 17282 ft | 362 kts | 230° |
| 2026-05-06 18:55 | 51.48465 | 1.59681 | 16783 ft | 356 kts | 248° |
| 2026-05-06 18:56 | 51.47621 | 1.55994 | 16341 ft | 351 kts | 252° |
| 2026-05-06 18:56 | 51.46821 | 1.52310 | 15855 ft | 348 kts | 251° |
| 2026-05-06 18:56 | 51.46011 | 1.48671 | 15386 ft | 346 kts | 251° |
| 2026-05-06 18:56 | 51.45186 | 1.45052 | 14928 ft | 344 kts | 251° |
| 2026-05-06 18:57 | 51.44361 | 1.41470 | 14465 ft | 342 kts | 251° |
| 2026-05-06 18:57 | 51.43376 | 1.38023 | 14002 ft | 342 kts | 236° |
| 2026-05-06 18:57 | 51.41753 | 1.35311 | 13844 ft | 335 kts | 221° |
| 2026-05-06 18:57 | 51.39916 | 1.33055 | 13660 ft | 333 kts | 218° |
| 2026-05-06 18:58 | 51.38018 | 1.30856 | 13468 ft | 340 kts | 217° |
| 2026-05-06 18:58 | 51.36086 | 1.28637 | 13279 ft | 344 kts | 217° |
| 2026-05-06 18:58 | 51.34148 | 1.26402 | 13084 ft | 342 kts | 217° |
| 2026-05-06 18:58 | 51.32228 | 1.24172 | 12896 ft | 340 kts | 218° |
| 2026-05-06 18:59 | 51.30327 | 1.21951 | 12927 ft | 338 kts | 218° |
| 2026-05-06 18:59 | 51.28641 | 1.19427 | 12965 ft | 326 kts | 234° |
| 2026-05-06 18:59 | 51.27440 | 1.16450 | 12978 ft | 312 kts | 241° |
| 2026-05-06 18:59 | 51.26391 | 1.13525 | 12961 ft | 294 kts | 242° |
| 2026-05-06 19:00 | 51.25417 | 1.10772 | 12968 ft | 278 kts | 242° |
| 2026-05-06 19:00 | 51.24468 | 1.08087 | 12553 ft | 281 kts | 242° |
| 2026-05-06 19:00 | 51.23492 | 1.05336 | 12142 ft | 286 kts | 242° |
| 2026-05-06 19:00 | 51.22492 | 1.02530 | 12059 ft | 297 kts | 242° |
| 2026-05-06 19:01 | 51.21464 | 0.99658 | 12006 ft | 298 kts | 242° |
| 2026-05-06 19:01 | 51.20436 | 0.96805 | 11994 ft | 295 kts | 242° |
| 2026-05-06 19:01 | 51.19418 | 0.93986 | 11983 ft | 293 kts | 242° |
| 2026-05-06 19:01 | 51.18414 | 0.91210 | 11981 ft | 293 kts | 242° |
| 2026-05-06 19:02 | 51.17396 | 0.88397 | 11985 ft | 294 kts | 242° |
| 2026-05-06 19:02 | 51.16372 | 0.85574 | 11986 ft | 294 kts | 242° |
| 2026-05-06 19:02 | 51.15347 | 0.82752 | 11983 ft | 295 kts | 242° |
| 2026-05-06 19:02 | 51.14321 | 0.79931 | 11969 ft | 291 kts | 242° |
| 2026-05-06 19:03 | 51.13327 | 0.77204 | 11958 ft | 279 kts | 242° |
| 2026-05-06 19:03 | 51.12374 | 0.74592 | 11959 ft | 267 kts | 242° |
| 2026-05-06 19:03 | 51.11453 | 0.72068 | 11962 ft | 261 kts | 242° |
| 2026-05-06 19:03 | 51.10550 | 0.69595 | 11960 ft | 255 kts | 242° |
| 2026-05-06 19:04 | 51.09667 | 0.67178 | 11964 ft | 252 kts | 242° |
| 2026-05-06 19:04 | 51.08781 | 0.64755 | 11979 ft | 255 kts | 242° |
| 2026-05-06 19:04 | 51.07883 | 0.62299 | 11989 ft | 259 kts | 242° |
| 2026-05-06 19:04 | 51.06966 | 0.59793 | 11604 ft | 269 kts | 241° |
| 2026-05-06 19:05 | 51.05996 | 0.57147 | 10978 ft | 283 kts | 242° |
| 2026-05-06 19:05 | 51.04981 | 0.54381 | 10153 ft | 300 kts | 242° |
| 2026-05-06 19:05 | 51.03897 | 0.51430 | 9354 ft | 315 kts | 242° |
| 2026-05-06 19:05 | 51.02805 | 0.48469 | 9229 ft | 302 kts | 241° |
| 2026-05-06 19:06 | 51.01767 | 0.45660 | 9102 ft | 288 kts | 241° |
| 2026-05-06 19:06 | 51.00772 | 0.42968 | 8841 ft | 279 kts | 242° |
| 2026-05-06 19:06 | 51.00054 | 0.40145 | 8395 ft | 278 kts | 263° |
| 2026-05-06 19:06 | 50.99920 | 0.37127 | 8210 ft | 271 kts | 270° |
| 2026-05-06 19:07 | 50.99887 | 0.34141 | 8026 ft | 271 kts | 271° |
| 2026-05-06 19:07 | 50.99875 | 0.31106 | 7997 ft | 279 kts | 271° |
| 2026-05-06 19:07 | 50.99870 | 0.28039 | 7976 ft | 275 kts | 271° |
| 2026-05-06 19:07 | 50.99867 | 0.25021 | 7967 ft | 272 kts | 271° |
| 2026-05-06 19:08 | 50.99864 | 0.22018 | 7969 ft | 272 kts | 271° |
| 2026-05-06 19:08 | 50.99866 | 0.19006 | 7981 ft | 274 kts | 271° |
| 2026-05-06 19:08 | 50.99864 | 0.15982 | 7981 ft | 274 kts | 271° |
| 2026-05-06 19:08 | 50.99863 | 0.12958 | 7984 ft | 274 kts | 271° |
| 2026-05-06 19:09 | 50.99861 | 0.09940 | 7985 ft | 273 kts | 271° |
| 2026-05-06 19:09 | 50.99852 | 0.06921 | 7978 ft | 273 kts | 271° |
| 2026-05-06 19:09 | 50.99845 | 0.03918 | 7983 ft | 272 kts | 271° |
| 2026-05-06 19:09 | 50.99839 | 0.00920 | 7985 ft | 272 kts | 271° |
| 2026-05-06 19:10 | 50.99832 | -0.02083 | 7986 ft | 272 kts | 271° |
| 2026-05-06 19:10 | 50.99822 | -0.05090 | 7984 ft | 273 kts | 271° |
| 2026-05-06 19:10 | 50.99808 | -0.08104 | 8000 ft | 273 kts | 271° |
| 2026-05-06 19:10 | 50.99788 | -0.11130 | 7991 ft | 274 kts | 271° |
| 2026-05-06 19:11 | 50.99767 | -0.14156 | 7984 ft | 274 kts | 271° |
| 2026-05-06 19:11 | 50.99742 | -0.17162 | 7909 ft | 272 kts | 271° |
| 2026-05-06 19:11 | 50.99716 | -0.20142 | 7661 ft | 269 kts | 271° |
| 2026-05-06 19:11 | 50.99688 | -0.23111 | 7322 ft | 270 kts | 271° |
| 2026-05-06 19:12 | 50.99662 | -0.26011 | 7152 ft | 259 kts | 271° |
| 2026-05-06 19:12 | 50.99633 | -0.28805 | 6941 ft | 250 kts | 271° |
| 2026-05-06 19:12 | 50.99609 | -0.31557 | 6648 ft | 248 kts | 271° |
| 2026-05-06 19:12 | 50.99589 | -0.34299 | 6410 ft | 249 kts | 271° |
| 2026-05-06 19:13 | 50.99565 | -0.37039 | 6157 ft | 248 kts | 271° |
| 2026-05-06 19:13 | 50.99538 | -0.39786 | 5831 ft | 251 kts | 270° |
| 2026-05-06 19:13 | 50.99513 | -0.42544 | 5461 ft | 248 kts | 271° |
| 2026-05-06 19:13 | 50.99747 | -0.45186 | 5107 ft | 238 kts | 295° |
| 2026-05-06 19:14 | 51.00732 | -0.47154 | 4762 ft | 225 kts | 327° |
| 2026-05-06 19:14 | 51.02111 | -0.48155 | 4481 ft | 213 kts | 340° |
| 2026-05-06 19:14 | 51.03490 | -0.48939 | 4184 ft | 208 kts | 340° |
| 2026-05-06 19:14 | 51.04846 | -0.49699 | 3861 ft | 205 kts | 341° |
| 2026-05-06 19:15 | 51.06187 | -0.50349 | 3618 ft | 199 kts | 353° |
| 2026-05-06 19:15 | 51.07514 | -0.49904 | 3404 ft | 198 kts | 31° |
| 2026-05-06 19:15 | 51.08561 | -0.48503 | 3303 ft | 197 kts | 41° |
| 2026-05-06 19:15 | 51.09578 | -0.47027 | 3168 ft | 199 kts | 40° |
| 2026-05-06 19:16 | 51.10606 | -0.45538 | 3044 ft | 202 kts | 41° |
| 2026-05-06 19:16 | 51.11394 | -0.43713 | 2995 ft | 202 kts | 71° |
| 2026-05-06 19:16 | 51.11683 | -0.41578 | 2857 ft | 195 kts | 73° |
| 2026-05-06 19:16 | 51.12004 | -0.39528 | 2627 ft | 189 kts | 74° |
| 2026-05-06 19:17 | 51.12291 | -0.37512 | 2381 ft | 185 kts | 75° |
| 2026-05-06 19:17 | 51.12561 | -0.35536 | 2126 ft | 179 kts | 75° |
| 2026-05-06 19:17 | 51.12814 | -0.33665 | 1896 ft | 167 kts | 75° |
| 2026-05-06 19:17 | 51.13051 | -0.31915 | 1666 ft | 161 kts | 75° |
| 2026-05-06 19:18 | 51.13290 | -0.30170 | 1476 ft | 156 kts | 75° |
| 2026-05-06 19:18 | 51.13512 | -0.28534 | 1229 ft | 147 kts | 74° |
| 2026-05-06 19:18 | 51.13724 | -0.26983 | 1034 ft | 141 kts | 75° |
| 2026-05-06 19:18 | 51.13936 | -0.25436 | 828 ft | 144 kts | 75° |
| 2026-05-06 19:19 | 51.14152 | -0.23864 | 658 ft | 146 kts | 76° |
| 2026-05-06 19:19 | 51.14368 | -0.22290 | 450 ft | 144 kts | 77° |
| 2026-05-06 19:19 | 51.14581 | -0.20747 | 265 ft | 140 kts | 77° |
| 2026-05-06 19:19 | 51.14777 | -0.19316 | 204 ft | 109 kts | 78° |
| 2026-05-06 19:20 | 51.14888 | -0.18500 | 210 ft | 48 kts | 77° |
| 2026-05-06 19:20 | 51.14958 | -0.18041 | 210 ft | 33 kts | 68° |
| 2026-05-06 19:20 | 51.15050 | -0.17810 | 211 ft | 16 kts | 51° |
| 2026-05-06 19:20 | 51.15112 | -0.17756 | 204 ft | 8 kts | 354° |
| 2026-05-06 19:21 | 51.15152 | -0.17764 | 204 ft | 0 kts | 353° |
| 2026-05-06 19:21 | 51.15160 | -0.17765 | 213 ft | 3 kts | 353° |
| 2026-05-06 19:22 | 51.15166 | -0.17766 | 204 ft | 1 kts | 354° |
| 2026-05-06 19:22 | 51.15174 | -0.17745 | 213 ft | 7 kts | 74° |
| 2026-05-06 19:22 | 51.15195 | -0.17604 | 211 ft | 19 kts | 78° |
| 2026-05-06 19:22 | 51.15223 | -0.17398 | 205 ft | 18 kts | 77° |
| 2026-05-06 19:23 | 51.15249 | -0.17212 | 207 ft | 16 kts | 77° |
| 2026-05-06 19:23 | 51.15273 | -0.17041 | 203 ft | 16 kts | 78° |
| 2026-05-06 19:23 | 51.15295 | -0.16880 | 205 ft | 10 kts | 77° |
| 2026-05-06 19:23 | 51.15310 | -0.16771 | 209 ft | 10 kts | 78° |
| 2026-05-06 19:24 | 51.15349 | -0.16697 | 211 ft | 10 kts | 0° |
| 2026-05-06 19:24 | 51.15408 | -0.16717 | 208 ft | 4 kts | 347° |
| 2026-05-06 19:24 | 51.15435 | -0.16728 | 211 ft | 5 kts | 338° |
| 2026-05-06 19:24 | 51.15462 | -0.16760 | 214 ft | 5 kts | 332° |
| 2026-05-06 19:25 | 51.15490 | -0.16773 | 212 ft | 0 kts | 346° |
| 2026-05-06 19:27 | 51.15492 | -0.16773 | 203 ft | 1 kts | 347° |
| 2026-05-06 19:28 | 51.15505 | -0.16778 | 212 ft | 0 kts | 347° |